Time;durP1;ratioP1;P1;durP2;ratioP2;P2;SDS_P1;SDS_P2;PMS_P1;PMS_P2;Temp;Humidity;BMP_temperature;BMP_pressure;BME280_temperature;BME280_humidity;BME280_pressure;Samples;Min_cycle;Max_cycle;Signal;HPM_P1;HPM_P2
2022/07/10 00:02:14;;;;;;;4.63;1.40;;;;;;;14.67;99.49;102680.00;5195511;28;20037;-73
2022/07/10 00:04:45;;;;;;;4.13;1.48;;;;;;;14.62;100.00;102671.56;5194845;28;20089;-73
2022/07/10 00:07:16;;;;;;;5.10;1.73;;;;;;;14.68;99.91;102679.03;5192109;28;20057;-74
2022/07/10 00:09:48;;;;;;;3.20;1.38;;;;;;;14.62;99.79;102683.91;5194510;28;20036;-73
2022/07/10 00:12:19;;;;;;;5.28;1.45;;;;;;;14.59;100.00;102687.63;5195757;28;20089;-74
2022/07/10 00:14:50;;;;;;;4.35;2.00;;;;;;;14.56;100.00;102685.22;5191433;28;20294;-73
2022/07/10 00:17:22;;;;;;;6.20;2.00;;;;;;;14.42;100.00;102669.50;5195502;28;20022;-73
2022/07/10 00:19:53;;;;;;;6.60;1.67;;;;;;;14.40;100.00;102682.81;5195235;28;20427;-73
2022/07/10 00:22:24;;;;;;;3.83;1.42;;;;;;;14.39;100.00;102678.47;5195317;28;20113;-73
2022/07/10 00:24:56;;;;;;;4.68;1.50;;;;;;;14.36;100.00;102676.91;5195036;28;20024;-73
2022/07/10 00:27:28;;;;;;;4.43;1.70;;;;;;;14.29;100.00;102678.31;5195303;28;20029;-73
2022/07/10 00:29:59;;;;;;;5.32;1.70;;;;;;;14.43;100.00;102679.94;5195689;28;20026;-73
2022/07/10 00:32:30;;;;;;;4.05;1.35;;;;;;;14.34;100.00;102673.53;5194743;28;20538;-73
2022/07/10 00:35:02;;;;;;;4.15;1.80;;;;;;;14.34;100.00;102677.97;5195158;28;20022;-73
2022/07/10 00:37:34;;;;;;;7.88;1.60;;;;;;;14.35;100.00;102677.00;5194189;28;20383;-73
2022/07/10 00:40:06;;;;;;;4.53;1.65;;;;;;;14.35;100.00;102677.84;5194796;28;20026;-74
2022/07/10 00:42:37;;;;;;;4.33;1.70;;;;;;;14.23;100.00;102660.28;5195127;28;20030;-73
2022/07/10 00:45:09;;;;;;;4.82;1.70;;;;;;;14.29;100.00;102664.28;5194960;28;20041;-74
2022/07/10 00:47:40;;;;;;;7.57;1.98;;;;;;;14.16;100.00;102664.28;5194820;28;20383;-73
2022/07/10 00:50:12;;;;;;;4.47;1.85;;;;;;;14.27;100.00;102653.81;5194608;28;20435;-73
2022/07/10 00:52:44;;;;;;;3.78;1.73;;;;;;;14.16;100.00;102658.19;5194680;28;20045;-73
2022/07/10 00:55:15;;;;;;;4.47;1.95;;;;;;;14.24;100.00;102661.09;5195140;28;20471;-74
2022/07/10 00:57:47;;;;;;;3.70;1.70;;;;;;;14.17;100.00;102650.19;5193892;28;20038;-74
2022/07/10 01:00:19;;;;;;;5.85;2.13;;;;;;;14.10;100.00;102655.03;5194486;28;20018;-74
2022/07/10 01:02:51;;;;;;;4.15;1.90;;;;;;;14.00;100.00;102653.16;5195040;28;20069;-74
2022/07/10 01:05:23;;;;;;;5.93;1.75;;;;;;;14.16;100.00;102647.63;5195248;28;20459;-73
2022/07/10 01:07:54;;;;;;;4.78;1.80;;;;;;;14.20;100.00;102649.94;5193298;28;20124;-73
2022/07/10 01:10:25;;;;;;;4.82;2.05;;;;;;;14.29;100.00;102648.47;5195186;28;20030;-74
2022/07/10 01:12:57;;;;;;;4.95;1.92;;;;;;;14.28;100.00;102645.00;5194370;28;20100;-73
2022/07/10 01:15:28;;;;;;;5.60;2.08;;;;;;;14.28;100.00;102642.34;5192622;28;20027;-73
2022/07/10 01:18:00;;;;;;;10.95;2.55;;;;;;;14.16;100.00;102637.94;5194146;28;20022;-73
2022/07/10 01:20:32;;;;;;;8.98;2.40;;;;;;;14.19;100.00;102636.88;5194425;28;20068;-74
2022/07/10 01:23:03;;;;;;;7.05;2.20;;;;;;;14.22;100.00;102632.22;5194324;28;20704;-73
2022/07/10 01:25:35;;;;;;;6.03;2.53;;;;;;;14.15;100.00;102620.44;5194094;28;20428;-74
2022/07/10 01:28:06;;;;;;;5.93;2.45;;;;;;;14.09;100.00;102618.22;5194574;28;20030;-73
2022/07/10 01:30:37;;;;;;;7.82;2.00;;;;;;;14.15;100.00;102620.44;5192937;28;20042;-73
2022/07/10 01:33:09;;;;;;;5.30;2.03;;;;;;;14.19;100.00;102626.34;5193829;28;20058;-74
2022/07/10 01:35:41;;;;;;;4.60;1.80;;;;;;;14.16;100.00;102621.28;5193328;28;20034;-72
2022/07/10 01:38:12;;;;;;;5.60;1.85;;;;;;;14.01;100.00;102608.25;5194605;28;20034;-72
2022/07/10 01:40:43;;;;;;;5.03;1.83;;;;;;;14.08;100.00;102613.91;5192742;28;20034;-72
2022/07/10 01:43:15;;;;;;;4.45;1.60;;;;;;;14.06;100.00;102616.69;5193916;28;20034;-72
2022/07/10 01:45:46;;;;;;;4.50;1.92;;;;;;;13.99;100.00;102617.22;5194312;28;20054;-72
2022/07/10 01:48:17;;;;;;;6.32;1.92;;;;;;;14.00;100.00;102621.53;5193677;28;20026;-72
2022/07/10 01:50:48;;;;;;;5.63;2.10;;;;;;;13.98;100.00;102619.03;5193766;28;20057;-73
2022/07/10 01:53:20;;;;;;;5.03;2.22;;;;;;;13.87;100.00;102625.03;5194377;28;20026;-73
2022/07/10 01:55:51;;;;;;;4.82;1.90;;;;;;;13.83;100.00;102618.31;5194226;28;20129;-72
2022/07/10 01:58:23;;;;;;;5.80;1.90;;;;;;;13.82;100.00;102619.25;5192240;28;20033;-73
2022/07/10 02:00:54;;;;;;;6.47;1.77;;;;;;;13.80;100.00;102620.31;5193193;28;20030;-72
2022/07/10 02:06:15;;;;;;;5.65;2.03;;;;;;;13.61;100.00;102615.50;5194674;28;20034;-73
2022/07/10 02:08:47;;;;;;;4.90;2.08;;;;;;;13.68;100.00;102619.38;5193424;28;20491;-72
2022/07/10 02:11:18;;;;;;;5.78;1.90;;;;;;;13.68;100.00;102613.28;5194037;28;20200;-72
2022/07/10 02:13:50;;;;;;;5.10;1.88;;;;;;;13.68;100.00;102615.91;5193922;28;20022;-72
2022/07/10 02:16:21;;;;;;;5.32;2.10;;;;;;;13.64;100.00;102617.91;5193649;28;20037;-72
2022/07/10 02:18:53;;;;;;;4.70;2.00;;;;;;;13.68;100.00;102615.91;5193375;28;20399;-72
2022/07/10 02:21:24;;;;;;;6.20;2.55;;;;;;;13.66;100.00;102615.16;5193389;28;20041;-72
2022/07/10 02:23:55;;;;;;;7.88;2.50;;;;;;;13.63;100.00;102616.22;5193967;28;20044;-72
2022/07/10 02:26:27;;;;;;;4.55;2.03;;;;;;;13.67;100.00;102617.69;5191535;28;20042;-73
2022/07/10 02:28:58;;;;;;;6.40;2.42;;;;;;;13.58;100.00;102613.91;5192796;28;20026;-71
2022/07/10 02:31:29;;;;;;;7.13;2.08;;;;;;;13.61;100.00;102621.59;5193422;28;20350;-72
2022/07/10 02:34:01;;;;;;;6.78;2.40;;;;;;;13.58;100.00;102615.69;5195950;28;20558;-72
2022/07/10 02:36:32;;;;;;;4.63;2.03;;;;;;;13.65;100.00;102611.69;5196763;28;20125;-73
2022/07/10 02:39:07;;;;;;;6.40;2.17;;;;;;;13.62;100.00;102606.63;5197537;28;20109;-72
2022/07/10 02:41:38;;;;;;;6.25;2.00;;;;;;;13.56;100.00;102615.81;5197286;28;20483;-72
2022/07/10 02:44:09;;;;;;;7.45;2.30;;;;;;;13.56;100.00;102607.91;5196209;28;20109;-72
2022/07/10 02:46:41;;;;;;;5.38;2.20;;;;;;;13.48;100.00;102601.47;5197263;28;20523;-72
2022/07/10 02:49:12;;;;;;;7.32;2.30;;;;;;;13.53;100.00;102608.13;5197429;28;20046;-72
2022/07/10 02:51:44;;;;;;;6.57;2.28;;;;;;;13.51;100.00;102604.75;5197510;28;20022;-72
2022/07/10 02:54:16;;;;;;;5.65;2.38;;;;;;;13.46;100.00;102614.75;5196578;28;20034;-72
2022/07/10 02:56:47;;;;;;;5.78;2.35;;;;;;;13.46;100.00;102604.22;5196574;28;20061;-71
2022/07/10 02:59:19;;;;;;;7.72;2.05;;;;;;;13.48;100.00;102612.00;5196516;28;20447;-72
2022/07/10 03:01:50;;;;;;;5.35;2.53;;;;;;;13.45;100.00;102604.31;5196405;28;20119;-72
2022/07/10 03:04:21;;;;;;;5.80;2.40;;;;;;;13.49;100.00;102608.44;5197134;28;20559;-72
2022/07/10 03:06:53;;;;;;;5.38;2.70;;;;;;;13.39;100.00;102602.97;5196853;28;20713;-72
2022/07/10 03:09:25;;;;;;;6.15;2.40;;;;;;;13.44;100.00;102602.63;5195965;28;20033;-72
2022/07/10 03:11:56;;;;;;;7.35;2.70;;;;;;;13.38;100.00;102604.75;5196068;28;20053;-72
2022/07/10 03:14:27;;;;;;;5.85;2.28;;;;;;;13.50;100.00;102602.22;5196985;28;20026;-72
2022/07/10 03:16:59;;;;;;;6.80;2.47;;;;;;;13.52;100.00;102595.88;5196159;28;20022;-72
2022/07/10 03:19:30;;;;;;;6.78;2.42;;;;;;;13.46;100.00;102603.38;5196863;28;20575;-72
2022/07/10 03:22:01;;;;;;;5.43;1.90;;;;;;;13.51;100.00;102604.75;5196565;28;20018;-72
2022/07/10 03:24:33;;;;;;;5.07;2.10;;;;;;;13.48;100.00;102599.69;5196310;28;20074;-72
2022/07/10 03:27:05;;;;;;;4.53;2.00;;;;;;;13.51;100.00;102604.75;5194750;28;20040;-72
2022/07/10 03:29:36;;;;;;;4.90;1.83;;;;;;;13.42;100.00;102601.91;5195349;28;20026;-72
2022/07/10 03:32:08;;;;;;;5.45;2.22;;;;;;;13.36;100.00;102593.47;5196391;28;20058;-72
2022/07/10 03:34:39;;;;;;;4.65;2.55;;;;;;;13.33;100.00;102596.34;5196130;28;20041;-72
2022/07/10 03:37:11;;;;;;;5.53;2.42;;;;;;;13.30;100.00;102585.19;5194826;28;21457;-72
2022/07/10 03:39:42;;;;;;;5.95;2.08;;;;;;;13.40;100.00;102591.47;5196825;28;20093;-72
2022/07/10 03:42:13;;;;;;;7.22;2.40;;;;;;;13.38;100.00;102586.31;5195413;28;20048;-72
2022/07/10 03:44:44;;;;;;;5.35;2.33;;;;;;;13.38;100.00;102577.59;5194664;28;20037;-72
2022/07/10 03:47:16;;;;;;;5.28;2.30;;;;;;;13.39;100.00;102577.47;5195840;28;20052;-72
2022/07/10 03:49:47;;;;;;;5.60;2.33;;;;;;;13.39;100.00;102574.84;5196108;28;20022;-72
2022/07/10 03:52:18;;;;;;;6.82;2.60;;;;;;;13.37;100.00;102571.50;5195453;28;20443;-72
2022/07/10 03:54:50;;;;;;;6.18;2.28;;;;;;;13.39;100.00;102580.09;5196133;28;20073;-72
2022/07/10 04:00:11;;;;;;;6.88;2.08;;;;;;;13.37;100.00;102575.88;5195998;28;20038;-72
2022/07/10 04:02:42;;;;;;;7.65;2.42;;;;;;;13.34;100.00;102584.00;5195047;28;20484;-72
2022/07/10 04:05:14;;;;;;;5.18;2.40;;;;;;;13.30;100.00;102588.66;5195354;28;20029;-72
2022/07/10 04:07:45;;;;;;;4.10;2.08;;;;;;;13.34;100.00;102576.97;5195706;28;20382;-72
2022/07/10 04:10:20;;;;;;;7.30;2.70;;;;;;;13.53;100.00;102581.78;5194909;28;20026;-72
2022/07/10 04:12:52;;;;;;;4.55;2.55;;;;;;;13.50;100.00;102583.78;5195007;28;20498;-72
2022/07/10 04:15:24;;;;;;;6.97;2.70;;;;;;;13.53;100.00;102580.94;5195785;28;20034;-72
2022/07/10 04:17:55;;;;;;;4.45;1.77;;;;;;;13.59;100.00;102586.59;5194895;28;20030;-72
2022/07/10 04:20:26;;;;;;;5.40;2.25;;;;;;;13.59;100.00;102591.03;5195375;28;20092;-72
2022/07/10 04:22:57;;;;;;;5.82;2.25;;;;;;;13.58;100.00;102590.19;5195170;28;20022;-73
2022/07/10 04:25:29;;;;;;;8.43;2.20;;;;;;;13.69;100.00;102591.25;5195243;28;20148;-72
2022/07/10 04:28:00;;;;;;;9.80;2.60;;;;;;;13.72;100.00;102581.34;5194296;28;20026;-72
2022/07/10 04:30:31;;;;;;;7.03;2.42;;;;;;;13.88;100.00;102581.09;5195983;28;20121;-72
2022/07/10 04:33:03;;;;;;;5.70;2.28;;;;;;;13.88;100.00;102579.28;5192580;28;20030;-72
2022/07/10 04:35:34;;;;;;;8.15;2.33;;;;;;;13.99;100.00;102582.97;5195574;28;20026;-72
2022/07/10 04:38:05;;;;;;;6.32;2.47;;;;;;;14.01;100.00;102581.88;5194556;28;20061;-72
2022/07/10 04:40:36;;;;;;;5.00;2.58;;;;;;;14.08;100.00;102584.94;5195070;28;20033;-72
2022/07/10 04:43:09;;;;;;;4.53;2.28;;;;;;;14.07;100.00;102592.00;5192893;28;20029;-71
2022/07/10 04:45:41;;;;;;;4.43;2.40;;;;;;;14.12;100.00;102568.78;5194223;28;20376;-72
2022/07/10 04:48:12;;;;;;;5.78;2.53;;;;;;;14.16;100.00;102577.31;5193812;28;20033;-71
2022/07/10 04:50:43;;;;;;;9.55;2.33;;;;;;;14.17;100.00;102579.00;5194996;28;20472;-72
2022/07/10 04:53:15;;;;;;;5.43;2.30;;;;;;;14.25;100.00;102574.03;5194782;28;20173;-72
2022/07/10 04:55:46;;;;;;;6.97;2.80;;;;;;;14.38;100.00;102592.41;5193788;28;20026;-72
2022/07/10 04:58:17;;;;;;;5.55;2.47;;;;;;;14.30;100.00;102592.13;5194683;28;20049;-73
2022/07/10 05:00:48;;;;;;;7.05;2.65;;;;;;;14.41;100.00;102583.44;5194190;28;20041;-71
2022/07/10 05:03:20;;;;;;;4.30;2.40;;;;;;;14.39;100.00;102587.97;5194055;28;20091;-73
2022/07/10 05:05:51;;;;;;;6.65;2.30;;;;;;;14.48;100.00;102584.69;5195334;28;20034;-72
2022/07/10 05:08:22;;;;;;;4.05;2.17;;;;;;;14.49;100.00;102566.13;5192923;28;20026;-73
2022/07/10 05:10:54;;;;;;;4.70;2.30;;;;;;;14.62;100.00;102587.16;5194117;28;20034;-72
2022/07/10 05:13:25;;;;;;;6.35;2.50;;;;;;;14.64;100.00;102584.41;5193654;28;20101;-72
2022/07/10 05:15:57;;;;;;;4.50;2.30;;;;;;;14.72;100.00;102577.59;5195426;28;20180;-71
2022/07/10 05:18:28;;;;;;;6.97;2.70;;;;;;;14.78;100.00;102587.72;5194368;28;20057;-72
2022/07/10 05:20:59;;;;;;;6.88;2.65;;;;;;;14.79;100.00;102588.53;5193503;28;20498;-72
2022/07/10 05:23:31;;;;;;;4.20;2.20;;;;;;;14.83;100.00;102596.13;5194948;28;20395;-72
2022/07/10 05:26:02;;;;;;;6.22;2.58;;;;;;;14.96;100.00;102587.25;5194341;28;20022;-72
2022/07/10 05:28:34;;;;;;;7.72;2.80;;;;;;;14.96;100.00;102590.75;5193114;28;20030;-71
2022/07/10 05:31:05;;;;;;;5.20;2.30;;;;;;;14.95;100.00;102582.94;5193438;28;20046;-71
2022/07/10 05:33:38;;;;;;;4.88;2.45;;;;;;;14.91;100.00;102565.66;5193879;28;20060;-72
2022/07/10 05:36:09;;;;;;;6.15;2.40;;;;;;;14.99;100.00;102585.22;5194273;28;20583;-72
2022/07/10 05:38:40;;;;;;;5.05;2.03;;;;;;;15.03;100.00;102589.31;5194190;28;20046;-71
2022/07/10 05:41:12;;;;;;;6.25;2.10;;;;;;;15.06;100.00;102583.81;5193611;28;20383;-72
2022/07/10 05:43:43;;;;;;;3.90;1.70;;;;;;;15.16;100.00;102591.03;5193649;28;20379;-72
2022/07/10 05:46:14;;;;;;;6.40;1.98;;;;;;;15.22;100.00;102590.56;5193790;28;20026;-73
2022/07/10 05:48:46;;;;;;;5.85;1.95;;;;;;;15.28;100.00;102590.09;5194346;28;20121;-72
2022/07/10 05:51:17;;;;;;;5.57;1.52;;;;;;;15.37;100.00;102583.25;5194383;28;20076;-71
2022/07/10 05:53:48;;;;;;;7.80;2.00;;;;;;;15.43;100.00;102582.78;5193709;28;20038;-71
2022/07/10 05:56:19;;;;;;;5.50;1.73;;;;;;;15.53;100.00;102589.03;5193526;28;20523;-72
2022/07/10 05:58:51;;;;;;;8.10;1.95;;;;;;;15.61;100.00;102591.94;5194405;28;20478;-72
2022/07/10 06:01:28;;;;;;;10.23;2.38;;;;;;;15.76;100.00;102590.75;5193613;28;20029;-73
2022/07/10 06:03:59;;;;;;;5.05;1.45;;;;;;;15.78;100.00;102594.09;5194096;28;20015;-73
2022/07/10 06:06:30;;;;;;;5.40;1.80;;;;;;;15.88;100.00;102585.47;5193918;28;20034;-73
2022/07/10 06:09:01;;;;;;;5.45;1.40;;;;;;;15.97;100.00;102592.63;5191537;28;20033;-72
2022/07/10 06:11:33;;;;;;;4.00;1.17;;;;;;;16.05;100.00;102587.56;5198045;28;20050;-73
2022/07/10 06:14:05;;;;;;;6.90;1.65;;;;;;;16.05;100.00;102577.84;5198397;28;20034;-72
2022/07/10 06:16:36;;;;;;;5.68;1.35;;;;;;;16.28;100.00;102581.25;5196309;28;20130;-73
2022/07/10 06:19:07;;;;;;;9.05;1.73;;;;;;;16.37;100.00;102582.34;5197637;28;20034;-72
2022/07/10 06:21:39;;;;;;;7.93;1.48;;;;;;;16.46;100.00;102573.63;5197379;28;20026;-73
2022/07/10 06:24:10;;;;;;;4.38;1.45;;;;;;;16.77;100.00;102582.53;5204685;28;20026;-72
2022/07/10 06:26:41;;;;;;;5.43;1.33;;;;;;;16.88;100.00;102583.44;5196994;28;20037;-73
2022/07/10 06:29:12;;;;;;;5.32;1.50;;;;;;;17.01;100.00;102577.00;5197840;28;20022;-73
2022/07/10 06:31:44;;;;;;;6.53;1.70;;;;;;;17.10;100.00;102579.84;5197102;28;20046;-73
2022/07/10 06:34:15;;;;;;;8.70;1.67;;;;;;;17.22;100.00;102587.56;5195888;28;20089;-72
2022/07/10 06:36:46;;;;;;;6.10;1.40;;;;;;;17.23;100.00;102578.63;5197156;28;20308;-72
2022/07/10 06:39:18;;;;;;;5.77;1.70;;;;;;;17.42;100.00;102585.84;5197589;28;20069;-73
2022/07/10 06:41:49;;;;;;;8.18;1.48;;;;;;;17.56;100.00;102582.00;5197462;28;20273;-73
2022/07/10 06:44:21;;;;;;;5.10;1.80;;;;;;;17.69;100.00;102579.97;5196971;28;20025;-72
2022/07/10 06:49:44;;;;;;;6.93;1.35;;;;;;;17.80;99.82;102589.66;5197129;28;20046;-72
2022/07/10 06:52:16;;;;;;;;;;;;;;;18.29;98.36;102587.09;5197852;28;20029;-72
2022/07/10 06:54:47;;;;;;;3.67;1.00;;;;;;;17.83;97.10;102586.72;5197249;28;19917;-71
2022/07/10 06:57:19;;;;;;;6.95;1.85;;;;;;;17.91;97.29;102572.78;5197013;28;20094;-73
2022/07/10 06:59:51;;;;;;;6.22;1.38;;;;;;;18.08;99.53;102581.91;5195223;28;20037;-72
2022/07/10 07:02:23;;;;;;;5.60;1.40;;;;;;;18.21;97.37;102585.97;5197336;28;20302;-72
2022/07/10 07:04:54;;;;;;;5.55;1.75;;;;;;;18.38;96.45;102588.94;5195315;28;20073;-72
2022/07/10 07:07:26;;;;;;;9.57;1.73;;;;;;;18.47;93.83;102580.97;5196989;28;20184;-73
2022/07/10 07:09:57;;;;;;;5.72;1.58;;;;;;;18.58;93.25;102573.84;5197066;28;20038;-72
2022/07/10 07:12:28;;;;;;;6.00;1.70;;;;;;;18.76;93.80;102582.81;5196880;28;20436;-72
2022/07/10 07:15:00;;;;;;;4.82;1.38;;;;;;;18.75;89.88;102580.28;5194688;28;20041;-71
2022/07/10 07:17:35;;;;;;;7.30;1.60;;;;;;;18.82;88.06;102582.22;5196472;28;20030;-72
2022/07/10 07:23:12;;;;;;;7.13;1.80;;;;;;;18.78;90.65;102583.50;5195202;28;20484;-73
2022/07/10 07:25:46;;;;;;;9.40;2.28;;;;;;;18.89;91.66;102596.63;5196231;28;20105;-73
2022/07/10 07:28:19;;;;;;;5.88;1.48;;;;;;;19.06;91.66;102594.22;5196474;28;20025;-72
2022/07/10 07:30:50;;;;;;;;;;;;;;;19.63;90.97;102587.91;5196858;28;20133;-72
2022/07/10 07:33:21;;;;;;;5.63;1.50;;;;;;;19.27;88.42;102588.72;5195897;28;21142;-72
2022/07/10 07:35:53;;;;;;;6.23;1.70;;;;;;;19.30;87.83;102591.09;5196985;28;20053;-72
2022/07/10 07:38:24;;;;;;;7.00;1.97;;;;;;;19.36;84.97;102587.84;5193848;28;20033;-71
2022/07/10 07:40:55;;;;;;;8.73;1.80;;;;;;;19.37;87.59;102590.34;5194194;28;20038;-71
2022/07/10 07:43:27;;;;;;;8.03;2.07;;;;;;;19.34;84.54;102592.47;5196276;28;20116;-71
2022/07/10 07:45:58;;;;;;;7.20;1.70;;;;;;;19.20;85.42;102586.63;5196379;28;20034;-71
2022/07/10 07:48:29;;;;;;;6.63;2.07;;;;;;;19.14;84.42;102581.91;5195328;28;20062;-72
2022/07/10 07:51:01;;;;;;;9.07;2.50;;;;;;;19.47;88.28;102584.97;5195432;28;20037;-71
2022/07/10 07:53:32;;;;;;;7.53;2.27;;;;;;;19.40;83.03;102583.94;5195758;28;20133;-71
2022/07/10 07:56:04;;;;;;;8.82;2.50;;;;;;;19.47;85.96;102600.09;5196084;28;20037;-71
2022/07/10 07:58:35;;;;;;;8.13;2.53;;;;;;;19.47;82.98;102595.63;5195966;28;20050;-72
2022/07/10 08:01:06;;;;;;;8.00;2.40;;;;;;;19.42;83.58;102590.75;5195059;28;20046;-72
2022/07/10 08:03:37;;;;;;;7.95;2.60;;;;;;;19.49;83.98;102598.16;5195734;28;20069;-72
2022/07/10 08:06:09;;;;;;;8.83;2.50;;;;;;;19.55;83.75;102598.41;5196013;28;20037;-72
2022/07/10 08:08:40;;;;;;;5.77;2.33;;;;;;;19.56;84.42;102594.75;5194521;28;20034;-71
2022/07/10 08:11:11;;;;;;;6.37;2.17;;;;;;;19.53;84.97;102592.38;5195524;28;20018;-72
2022/07/10 08:13:43;;;;;;;8.20;2.67;;;;;;;19.57;83.67;102591.09;5193848;28;20033;-72
2022/07/10 08:16:14;;;;;;;5.43;2.40;;;;;;;19.47;84.74;102590.31;5192865;28;20444;-71
2022/07/10 08:18:45;;;;;;;8.57;2.50;;;;;;;19.51;85.91;102594.38;5196229;28;20440;-71
2022/07/10 08:21:17;;;;;;;7.17;2.47;;;;;;;19.55;83.96;102590.44;5195654;28;20506;-72
2022/07/10 08:23:48;;;;;;;6.37;2.57;;;;;;;19.65;82.55;102588.59;5195550;28;20534;-71
2022/07/10 08:26:19;;;;;;;8.27;2.53;;;;;;;19.78;85.53;102582.09;5193390;28;20084;-71
2022/07/10 08:28:51;;;;;;;7.77;3.07;;;;;;;19.69;82.11;102581.97;5196151;28;20033;-71
2022/07/10 08:31:22;;;;;;;6.70;2.63;;;;;;;19.84;81.19;102590.31;5194686;28;20057;-72
2022/07/10 08:33:54;;;;;;;7.80;2.90;;;;;;;19.84;80.40;102584.97;5194315;28;20407;-72
2022/07/10 08:36:26;;;;;;;6.33;2.43;;;;;;;19.76;80.69;102584.88;5194963;28;20379;-72
2022/07/10 08:38:58;;;;;;;10.35;2.42;;;;;;;20.00;82.48;102589.69;5194987;28;20486;-71
2022/07/10 08:41:31;;;;;;;6.32;1.83;;;;;;;19.98;81.26;102590.81;5194443;28;20030;-71
2022/07/10 08:44:02;;;;;;;7.35;2.67;;;;;;;19.93;81.32;102581.44;5195542;28;20411;-71
2022/07/10 08:46:35;;;;;;;6.57;2.27;;;;;;;19.98;82.33;102585.47;5195522;28;20022;-72
2022/07/10 08:49:10;;;;;;;5.88;2.40;;;;;;;19.84;83.09;102592.13;5194611;28;20015;-71
2022/07/10 08:51:48;;;;;;;6.00;2.10;;;;;;;19.86;82.74;102590.16;5193976;28;20439;-71
2022/07/10 08:54:20;;;;;;;6.20;2.08;;;;;;;19.81;83.88;102585.31;5195809;28;20500;-72
2022/07/10 08:56:52;;;;;;;8.05;2.20;;;;;;;19.71;81.73;102581.84;5194979;28;20157;-71
2022/07/10 08:59:24;;;;;;;4.20;2.03;;;;;;;19.78;80.88;102588.25;5193502;28;20104;-72
2022/07/10 09:01:56;;;;;;;4.67;1.90;;;;;;;19.88;82.36;102591.69;5193862;28;20113;-71
2022/07/10 09:04:27;;;;;;;5.07;2.00;;;;;;;20.02;84.15;102589.50;5194722;28;20623;-72
2022/07/10 09:06:59;;;;;;;5.83;2.10;;;;;;;20.13;81.98;102591.97;5194767;28;20037;-71
2022/07/10 09:09:30;;;;;;;6.83;2.47;;;;;;;20.21;82.68;102592.03;5206991;28;20081;-72
2022/07/10 09:12:01;;;;;;;7.77;2.37;;;;;;;20.23;83.22;102578.56;5194603;28;20330;-71
2022/07/10 09:14:36;;;;;;;7.07;2.10;;;;;;;20.32;80.97;102577.69;5193271;28;20022;-72
2022/07/10 09:17:07;;;;;;;7.20;2.13;;;;;;;20.29;80.96;102580.63;5194759;28;20077;-71
2022/07/10 09:19:39;;;;;;;7.67;2.27;;;;;;;20.48;82.26;102580.47;5194753;28;20431;-71
2022/07/10 09:22:11;;;;;;;6.20;1.93;;;;;;;20.35;78.48;102585.38;5194463;28;20022;-71
2022/07/10 09:24:45;;;;;;;5.72;1.77;;;;;;;20.37;77.55;102576.22;5193703;28;20232;-71
2022/07/10 09:27:17;;;;;;;4.00;1.70;;;;;;;20.35;78.02;102570.22;5191724;28;20132;-72
2022/07/10 09:29:57;;;;;;;4.80;1.77;;;;;;;20.37;81.38;102576.22;5193957;28;20121;-71
2022/07/10 09:32:29;;;;;;;2.92;1.40;;;;;;;20.19;77.97;102567.38;5194632;28;20046;-71
2022/07/10 09:37:51;;;;;;;4.72;1.70;;;;;;;20.37;80.77;102567.41;5194055;28;20042;-72
2022/07/10 09:40:27;;;;;;;5.10;1.97;;;;;;;20.45;80.32;102556.81;5194287;28;20022;-72
2022/07/10 09:43:00;;;;;;;6.45;1.88;;;;;;;20.39;79.73;102560.94;5196820;28;20030;-72
2022/07/10 09:45:33;;;;;;;5.47;1.70;;;;;;;20.34;78.35;102562.38;5197790;28;20101;-72
2022/07/10 09:48:04;;;;;;;;;;;;;;;21.04;77.41;102563.28;5198931;28;20041;-72
2022/07/10 09:50:36;;;;;;;7.20;1.90;;;;;;;20.36;76.83;102569.22;5198508;28;19917;-72
2022/07/10 09:53:12;;;;;;;4.93;2.07;;;;;;;20.31;77.04;102568.88;5198270;28;20093;-72
2022/07/10 09:55:45;;;;;;;5.35;1.88;;;;;;;20.42;77.83;102549.16;5197205;28;20495;-72
2022/07/10 09:58:17;;;;;;;6.40;1.90;;;;;;;20.47;75.95;102552.19;5198486;28;20045;-72
2022/07/10 10:00:50;;;;;;;5.00;2.30;;;;;;;20.74;77.52;102535.28;5197625;28;20030;-71
2022/07/10 10:03:24;;;;;;;4.45;2.15;;;;;;;20.73;75.05;102551.44;5197836;28;20030;-71
2022/07/10 10:06:00;;;;;;;5.68;2.17;;;;;;;20.73;74.66;102551.44;5198168;28;20023;-72
2022/07/10 10:08:55;;;;;;;4.88;2.63;;;;;;;20.74;75.85;102553.09;5196890;28;20030;-71
2022/07/10 10:11:28;;;;;;;5.60;1.88;;;;;;;20.79;76.35;102548.97;5196523;28;20030;-72
2022/07/10 10:14:00;;;;;;;5.15;1.98;;;;;;;21.02;76.56;102551.94;5198452;28;20026;-72
2022/07/10 10:16:33;;;;;;;5.55;1.90;;;;;;;21.32;74.76;102552.44;5197177;28;20026;-71
2022/07/10 10:22:01;;;;;;;4.60;1.70;;;;;;;21.42;74.85;102555.03;5198368;28;20027;-72
2022/07/10 10:24:33;;;;;;;;;;;;;;;22.06;73.51;102554.38;5197371;28;20026;-72
2022/07/10 10:27:06;;;;;;;4.03;1.95;;;;;;;21.26;70.77;102553.94;5197381;28;19913;-72
2022/07/10 10:29:39;;;;;;;5.13;1.92;;;;;;;21.25;72.92;102557.59;5195929;28;20026;-72
2022/07/10 10:32:10;;;;;;;;;;;;;;;21.98;72.26;102545.53;5198271;28;20122;-72
2022/07/10 10:34:43;;;;;;;2.90;1.67;;;;;;;21.62;73.40;102543.09;5195075;28;19918;-71
2022/07/10 10:37:27;;;;;;;4.85;2.00;;;;;;;21.91;73.52;102544.53;5196846;28;20084;-71
2022/07/10 10:39:58;;;;;;;5.82;2.40;;;;;;;22.19;74.71;102542.41;5197440;28;20030;-70
2022/07/10 10:42:35;;;;;;;4.27;1.50;;;;;;;22.25;69.72;102542.59;5196528;28;20076;-70
2022/07/10 10:45:24;;;;;;;3.65;1.88;;;;;;;22.46;68.76;102535.91;5197202;28;20026;-71
2022/07/10 10:48:05;;;;;;;5.30;1.50;;;;;;;22.43;68.93;102536.28;5196739;28;20030;-71
2022/07/10 10:50:46;;;;;;;4.63;1.50;;;;;;;22.36;66.65;102538.78;5195589;28;20049;-70
2022/07/10 10:53:18;;;;;;;6.50;1.63;;;;;;;22.27;65.82;102535.25;5196439;28;20110;-71
2022/07/10 10:56:02;;;;;;;;;;;;;;;23.01;65.59;102530.69;5197465;28;20322;-71
2022/07/10 10:58:44;;;;;;;7.25;1.88;;;;;;;22.56;67.50;102536.59;5196597;28;19914;-70
2022/07/10 11:01:23;;;;;;;4.53;1.73;;;;;;;22.44;66.35;102537.94;5196234;28;20034;-71
2022/07/10 11:04:03;;;;;;;4.28;1.65;;;;;;;22.53;67.77;102534.25;5196738;28;20029;-71
2022/07/10 11:06:52;;;;;;;4.00;1.60;;;;;;;22.68;67.44;102519.19;5195922;28;20030;-71
2022/07/10 11:09:28;;;;;;;3.53;1.38;;;;;;;22.24;67.45;102521.41;5195749;28;20029;-71
2022/07/10 11:12:10;;;;;;;4.53;1.20;;;;;;;22.41;67.77;102528.41;5196536;28;20092;-71
2022/07/10 11:14:47;;;;;;;4.32;1.60;;;;;;;22.47;66.41;102519.75;5197034;28;20026;-70
2022/07/10 11:17:18;;;;;;;3.75;1.00;;;;;;;22.50;68.37;102527.41;5196582;28;20383;-70
2022/07/10 11:19:52;;;;;;;4.53;1.30;;;;;;;22.46;66.40;102519.88;5195862;28;20029;-71
2022/07/10 11:22:32;;;;;;;5.68;1.35;;;;;;;22.82;67.75;102520.34;5196121;28;20472;-71
2022/07/10 11:25:19;;;;;;;4.05;1.33;;;;;;;22.66;65.29;102521.22;5196493;28;20025;-71
2022/07/10 11:28:20;;;;;;;3.78;1.58;;;;;;;22.80;65.56;102507.16;5195785;28;20034;-71
2022/07/10 11:30:53;;;;;;;4.30;1.27;;;;;;;22.81;65.33;102516.03;5193943;28;20062;-71
2022/07/10 11:33:24;;;;;;;4.28;1.40;;;;;;;22.74;63.83;102513.19;5196545;28;20034;-70
2022/07/10 11:35:57;;;;;;;4.68;1.30;;;;;;;22.99;64.01;102505.13;5195451;28;20362;-70
2022/07/10 11:38:28;;;;;;;3.90;1.37;;;;;;;22.82;62.08;102502.47;5196018;28;20026;-70
2022/07/10 11:41:00;;;;;;;3.10;1.30;;;;;;;22.94;63.13;102510.16;5195839;28;20034;-71
2022/07/10 11:43:31;;;;;;;4.17;1.37;;;;;;;22.85;64.24;102495.13;5195394;28;20065;-71
2022/07/10 11:46:02;;;;;;;4.60;1.33;;;;;;;22.78;64.47;102505.66;5196090;28;20026;-71
2022/07/10 11:48:39;;;;;;;4.57;1.10;;;;;;;23.18;65.39;102509.25;5196112;28;20022;-71
2022/07/10 11:51:25;;;;;;;3.17;1.27;;;;;;;23.39;65.48;102500.66;5195792;28;20029;-71
2022/07/10 11:54:15;;;;;;;6.72;1.48;;;;;;;23.22;64.51;102490.03;5195537;28;20192;-71
2022/07/10 11:56:52;;;;;;;4.22;1.40;;;;;;;23.35;65.97;102485.97;5194331;28;20346;-71
2022/07/10 11:59:25;;;;;;;7.45;1.38;;;;;;;23.18;64.02;102490.53;5195810;28;20026;-71
2022/07/10 12:01:57;;;;;;;3.58;1.30;;;;;;;23.33;66.52;102485.28;5193564;28;20460;-71
2022/07/10 12:04:31;;;;;;;2.30;1.07;;;;;;;23.22;62.21;102491.84;5195523;28;20109;-71